sensor_id;sensor_type;location;lat;lon;timestamp;temperature;humidity
18456;DHT22;9357;49.900;8.208;2024-02-21T00:00:34;8.70;99.90
18456;DHT22;9357;49.900;8.208;2024-02-21T00:02:06;8.70;99.90
18456;DHT22;9357;49.900;8.208;2024-02-21T00:03:39;8.70;99.90
18456;DHT22;9357;49.900;8.208;2024-02-21T00:05:10;8.80;99.90
18456;DHT22;9357;49.900;8.208;2024-02-21T00:06:43;8.70;99.90
18456;DHT22;9357;49.900;8.208;2024-02-21T00:08:15;8.70;99.90
18456;DHT22;9357;49.900;8.208;2024-02-21T00:09:48;8.70;99.90
18456;DHT22;9357;49.900;8.208;2024-02-21T00:11:22;8.70;99.90
18456;DHT22;9357;49.900;8.208;2024-02-21T00:12:54;8.70;99.90
18456;DHT22;9357;49.900;8.208;2024-02-21T00:14:26;8.70;99.90
18456;DHT22;9357;49.900;8.208;2024-02-21T00:16:00;8.70;99.90
18456;DHT22;9357;49.900;8.208;2024-02-21T00:17:32;8.70;99.90
18456;DHT22;9357;49.900;8.208;2024-02-21T00:19:05;8.70;99.90
18456;DHT22;9357;49.900;8.208;2024-02-21T00:20:37;8.70;99.90
18456;DHT22;9357;49.900;8.208;2024-02-21T00:22:09;8.70;99.90
18456;DHT22;9357;49.900;8.208;2024-02-21T00:23:41;8.70;99.90
18456;DHT22;9357;49.900;8.208;2024-02-21T00:25:14;8.70;99.90
18456;DHT22;9357;49.900;8.208;2024-02-21T00:26:47;8.70;99.90
18456;DHT22;9357;49.900;8.208;2024-02-21T00:28:20;8.70;99.90
18456;DHT22;9357;49.900;8.208;2024-02-21T00:29:52;8.70;99.90
18456;DHT22;9357;49.900;8.208;2024-02-21T00:31:25;8.60;99.90
18456;DHT22;9357;49.900;8.208;2024-02-21T00:32:57;8.60;99.90
18456;DHT22;9357;49.900;8.208;2024-02-21T00:34:30;8.60;99.90
18456;DHT22;9357;49.900;8.208;2024-02-21T00:36:02;8.60;99.90
18456;DHT22;9357;49.900;8.208;2024-02-21T00:37:35;8.70;99.90
18456;DHT22;9357;49.900;8.208;2024-02-21T00:39:07;8.60;99.90
18456;DHT22;9357;49.900;8.208;2024-02-21T00:40:40;8.60;99.90
18456;DHT22;9357;49.900;8.208;2024-02-21T00:42:15;8.60;99.90
18456;DHT22;9357;49.900;8.208;2024-02-21T00:43:47;8.60;99.90
18456;DHT22;9357;49.900;8.208;2024-02-21T00:45:21;8.60;99.90
18456;DHT22;9357;49.900;8.208;2024-02-21T00:46:53;8.60;99.90
18456;DHT22;9357;49.900;8.208;2024-02-21T00:48:27;8.60;99.90
18456;DHT22;9357;49.900;8.208;2024-02-21T00:49:59;8.60;99.90
18456;DHT22;9357;49.900;8.208;2024-02-21T00:51:32;8.60;99.90
18456;DHT22;9357;49.900;8.208;2024-02-21T00:53:04;8.60;99.90
18456;DHT22;9357;49.900;8.208;2024-02-21T00:54:37;8.50;99.90
18456;DHT22;9357;49.900;8.208;2024-02-21T00:56:21;8.50;99.90
18456;DHT22;9357;49.900;8.208;2024-02-21T00:57:55;8.50;99.90
18456;DHT22;9357;49.900;8.208;2024-02-21T00:59:27;8.60;99.90
18456;DHT22;9357;49.900;8.208;2024-02-21T01:01:00;8.50;99.90
18456;DHT22;9357;49.900;8.208;2024-02-21T01:02:32;8.50;99.90
18456;DHT22;9357;49.900;8.208;2024-02-21T01:04:06;8.50;99.90
18456;DHT22;9357;49.900;8.208;2024-02-21T01:05:39;8.50;99.90
18456;DHT22;9357;49.900;8.208;2024-02-21T01:07:11;8.50;99.90
18456;DHT22;9357;49.900;8.208;2024-02-21T01:08:44;8.50;99.90
18456;DHT22;9357;49.900;8.208;2024-02-21T01:10:17;8.50;99.90
18456;DHT22;9357;49.900;8.208;2024-02-21T01:11:49;8.40;99.90
18456;DHT22;9357;49.900;8.208;2024-02-21T01:13:23;8.50;99.90
18456;DHT22;9357;49.900;8.208;2024-02-21T01:14:56;8.40;99.90
18456;DHT22;9357;49.900;8.208;2024-02-21T01:16:28;8.50;99.90
18456;DHT22;9357;49.900;8.208;2024-02-21T01:18:01;8.40;99.90
18456;DHT22;9357;49.900;8.208;2024-02-21T01:19:33;8.50;99.90
18456;DHT22;9357;49.900;8.208;2024-02-21T01:21:06;8.40;99.90
18456;DHT22;9357;49.900;8.208;2024-02-21T01:22:38;8.50;99.90
18456;DHT22;9357;49.900;8.208;2024-02-21T01:24:11;8.40;99.90
18456;DHT22;9357;49.900;8.208;2024-02-21T01:25:44;8.40;99.90
18456;DHT22;9357;49.900;8.208;2024-02-21T01:27:17;8.40;99.90
18456;DHT22;9357;49.900;8.208;2024-02-21T01:28:50;8.40;99.90
18456;DHT22;9357;49.900;8.208;2024-02-21T01:30:23;8.40;99.90
18456;DHT22;9357;49.900;8.208;2024-02-21T01:31:55;8.40;99.90
18456;DHT22;9357;49.900;8.208;2024-02-21T01:33:28;8.40;99.90
18456;DHT22;9357;49.900;8.208;2024-02-21T01:35:07;8.40;99.90
18456;DHT22;9357;49.900;8.208;2024-02-21T01:36:40;8.40;99.90
18456;DHT22;9357;49.900;8.208;2024-02-21T01:38:13;8.40;99.90
18456;DHT22;9357;49.900;8.208;2024-02-21T01:39:46;8.40;99.90
18456;DHT22;9357;49.900;8.208;2024-02-21T01:41:17;8.50;99.90
18456;DHT22;9357;49.900;8.208;2024-02-21T01:42:50;8.40;99.90
18456;DHT22;9357;49.900;8.208;2024-02-21T01:44:26;8.30;99.90
18456;DHT22;9357;49.900;8.208;2024-02-21T01:45:59;8.40;99.90
18456;DHT22;9357;49.900;8.208;2024-02-21T01:47:31;8.40;99.90
18456;DHT22;9357;49.900;8.208;2024-02-21T01:49:04;8.40;99.90
18456;DHT22;9357;49.900;8.208;2024-02-21T01:50:36;8.40;99.90
18456;DHT22;9357;49.900;8.208;2024-02-21T01:52:11;8.40;99.90
18456;DHT22;9357;49.900;8.208;2024-02-21T01:53:46;8.40;99.90
18456;DHT22;9357;49.900;8.208;2024-02-21T01:55:19;8.40;99.90
18456;DHT22;9357;49.900;8.208;2024-02-21T01:56:52;8.40;99.90
18456;DHT22;9357;49.900;8.208;2024-02-21T01:58:25;8.40;99.90
18456;DHT22;9357;49.900;8.208;2024-02-21T02:00:00;8.40;99.90
18456;DHT22;9357;49.900;8.208;2024-02-21T02:01:32;8.40;99.90
18456;DHT22;9357;49.900;8.208;2024-02-21T02:03:05;8.40;99.90
18456;DHT22;9357;49.900;8.208;2024-02-21T02:04:38;8.40;99.90
18456;DHT22;9357;49.900;8.208;2024-02-21T02:06:11;8.40;99.90
18456;DHT22;9357;49.900;8.208;2024-02-21T02:07:43;8.40;99.90
18456;DHT22;9357;49.900;8.208;2024-02-21T02:09:15;8.40;99.90
18456;DHT22;9357;49.900;8.208;2024-02-21T02:10:47;8.40;99.90
18456;DHT22;9357;49.900;8.208;2024-02-21T02:12:20;8.40;99.90
18456;DHT22;9357;49.900;8.208;2024-02-21T02:13:52;8.40;99.90
18456;DHT22;9357;49.900;8.208;2024-02-21T02:15:37;8.40;99.90
18456;DHT22;9357;49.900;8.208;2024-02-21T02:17:09;8.40;99.90
18456;DHT22;9357;49.900;8.208;2024-02-21T02:18:42;8.40;99.90
18456;DHT22;9357;49.900;8.208;2024-02-21T02:20:14;8.40;99.90
18456;DHT22;9357;49.900;8.208;2024-02-21T02:21:50;8.40;99.90
18456;DHT22;9357;49.900;8.208;2024-02-21T02:23:29;8.40;99.90
18456;DHT22;9357;49.900;8.208;2024-02-21T02:25:03;8.30;99.90
18456;DHT22;9357;49.900;8.208;2024-02-21T02:26:35;8.40;99.90
18456;DHT22;9357;49.900;8.208;2024-02-21T02:28:08;8.30;99.90
18456;DHT22;9357;49.900;8.208;2024-02-21T02:29:40;8.40;99.90
18456;DHT22;9357;49.900;8.208;2024-02-21T02:31:13;8.40;99.90
18456;DHT22;9357;49.900;8.208;2024-02-21T02:32:45;8.30;99.90
18456;DHT22;9357;49.900;8.208;2024-02-21T02:34:18;8.30;99.90
18456;DHT22;9357;49.900;8.208;2024-02-21T02:35:51;8.40;99.90
18456;DHT22;9357;49.900;8.208;2024-02-21T02:37:23;8.30;99.90
18456;DHT22;9357;49.900;8.208;2024-02-21T02:38:56;8.40;99.90
18456;DHT22;9357;49.900;8.208;2024-02-21T02:40:29;8.30;99.90
18456;DHT22;9357;49.900;8.208;2024-02-21T02:42:02;8.30;99.90
18456;DHT22;9357;49.900;8.208;2024-02-21T02:43:34;8.30;99.90
18456;DHT22;9357;49.900;8.208;2024-02-21T02:45:09;8.30;99.90
18456;DHT22;9357;49.900;8.208;2024-02-21T02:46:41;8.30;99.90
18456;DHT22;9357;49.900;8.208;2024-02-21T02:48:13;8.30;99.90
18456;DHT22;9357;49.900;8.208;2024-02-21T02:49:45;8.30;99.90
18456;DHT22;9357;49.900;8.208;2024-02-21T02:51:22;8.30;99.90
18456;DHT22;9357;49.900;8.208;2024-02-21T02:52:55;8.30;99.90
18456;DHT22;9357;49.900;8.208;2024-02-21T02:54:28;8.30;99.90
18456;DHT22;9357;49.900;8.208;2024-02-21T02:56:01;8.30;99.90
18456;DHT22;9357;49.900;8.208;2024-02-21T02:57:33;8.30;99.90
18456;DHT22;9357;49.900;8.208;2024-02-21T02:59:06;8.30;99.90
18456;DHT22;9357;49.900;8.208;2024-02-21T03:00:38;8.30;99.90
18456;DHT22;9357;49.900;8.208;2024-02-21T03:02:11;8.30;99.90
18456;DHT22;9357;49.900;8.208;2024-02-21T03:03:43;8.30;99.90
18456;DHT22;9357;49.900;8.208;2024-02-21T03:05:18;8.30;99.90
18456;DHT22;9357;49.900;8.208;2024-02-21T03:06:50;8.30;99.90
18456;DHT22;9357;49.900;8.208;2024-02-21T03:08:23;8.30;99.90
18456;DHT22;9357;49.900;8.208;2024-02-21T03:09:56;8.30;99.90
18456;DHT22;9357;49.900;8.208;2024-02-21T03:11:29;8.30;99.90
18456;DHT22;9357;49.900;8.208;2024-02-21T03:13:02;8.30;99.90
18456;DHT22;9357;49.900;8.208;2024-02-21T03:14:35;8.30;99.90
18456;DHT22;9357;49.900;8.208;2024-02-21T03:16:07;8.30;99.90
18456;DHT22;9357;49.900;8.208;2024-02-21T03:17:39;8.30;99.90
18456;DHT22;9357;49.900;8.208;2024-02-21T03:19:12;8.30;99.90
18456;DHT22;9357;49.900;8.208;2024-02-21T03:20:44;8.30;99.90
18456;DHT22;9357;49.900;8.208;2024-02-21T03:22:17;8.30;99.90
18456;DHT22;9357;49.900;8.208;2024-02-21T03:23:49;8.30;99.90
18456;DHT22;9357;49.900;8.208;2024-02-21T03:25:23;8.30;99.90
18456;DHT22;9357;49.900;8.208;2024-02-21T03:26:55;8.30;99.90
18456;DHT22;9357;49.900;8.208;2024-02-21T03:28:28;8.30;99.90
18456;DHT22;9357;49.900;8.208;2024-02-21T03:30:00;8.30;99.90
18456;DHT22;9357;49.900;8.208;2024-02-21T03:31:33;8.30;99.90
18456;DHT22;9357;49.900;8.208;2024-02-21T03:33:05;8.30;99.90
18456;DHT22;9357;49.900;8.208;2024-02-21T03:34:37;8.30;99.90
18456;DHT22;9357;49.900;8.208;2024-02-21T03:36:13;8.30;99.90
18456;DHT22;9357;49.900;8.208;2024-02-21T03:37:46;8.30;99.90
18456;DHT22;9357;49.900;8.208;2024-02-21T03:39:19;8.30;99.90
18456;DHT22;9357;49.900;8.208;2024-02-21T03:40:52;8.30;99.90
18456;DHT22;9357;49.900;8.208;2024-02-21T03:42:24;8.30;99.90
18456;DHT22;9357;49.900;8.208;2024-02-21T03:43:56;8.30;99.90
18456;DHT22;9357;49.900;8.208;2024-02-21T03:45:29;8.30;99.90
18456;DHT22;9357;49.900;8.208;2024-02-21T03:47:01;8.30;99.90
18456;DHT22;9357;49.900;8.208;2024-02-21T03:48:37;8.30;99.90
18456;DHT22;9357;49.900;8.208;2024-02-21T03:50:10;8.30;99.90
18456;DHT22;9357;49.900;8.208;2024-02-21T03:51:42;8.30;99.90
18456;DHT22;9357;49.900;8.208;2024-02-21T03:53:15;8.20;99.90
18456;DHT22;9357;49.900;8.208;2024-02-21T03:54:47;8.30;99.90
18456;DHT22;9357;49.900;8.208;2024-02-21T03:56:21;8.20;99.90
18456;DHT22;9357;49.900;8.208;2024-02-21T03:57:53;8.20;99.90
18456;DHT22;9357;49.900;8.208;2024-02-21T03:59:25;8.20;99.90
18456;DHT22;9357;49.900;8.208;2024-02-21T04:01:00;8.20;99.90
18456;DHT22;9357;49.900;8.208;2024-02-21T04:02:32;8.20;99.90
18456;DHT22;9357;49.900;8.208;2024-02-21T04:04:05;8.20;99.90
18456;DHT22;9357;49.900;8.208;2024-02-21T04:05:37;8.20;99.90
18456;DHT22;9357;49.900;8.208;2024-02-21T04:07:09;8.20;99.90
18456;DHT22;9357;49.900;8.208;2024-02-21T04:08:41;8.20;99.90
18456;DHT22;9357;49.900;8.208;2024-02-21T04:10:14;8.20;99.90
18456;DHT22;9357;49.900;8.208;2024-02-21T04:11:48;8.20;99.90
18456;DHT22;9357;49.900;8.208;2024-02-21T04:13:20;8.20;99.90
18456;DHT22;9357;49.900;8.208;2024-02-21T04:14:54;8.20;99.90
18456;DHT22;9357;49.900;8.208;2024-02-21T04:16:26;8.20;99.90
18456;DHT22;9357;49.900;8.208;2024-02-21T04:17:59;8.20;99.90
18456;DHT22;9357;49.900;8.208;2024-02-21T04:19:31;8.20;99.90
18456;DHT22;9357;49.900;8.208;2024-02-21T04:21:04;8.20;99.90
18456;DHT22;9357;49.900;8.208;2024-02-21T04:22:36;8.20;99.90
18456;DHT22;9357;49.900;8.208;2024-02-21T04:24:09;8.20;99.90
18456;DHT22;9357;49.900;8.208;2024-02-21T04:25:42;8.10;99.90
18456;DHT22;9357;49.900;8.208;2024-02-21T04:27:15;8.10;99.90
18456;DHT22;9357;49.900;8.208;2024-02-21T04:28:48;8.10;99.90
18456;DHT22;9357;49.900;8.208;2024-02-21T04:30:20;8.10;99.90
18456;DHT22;9357;49.900;8.208;2024-02-21T04:31:52;8.10;99.90
18456;DHT22;9357;49.900;8.208;2024-02-21T04:33:25;8.10;99.90
18456;DHT22;9357;49.900;8.208;2024-02-21T04:34:57;8.10;99.90
18456;DHT22;9357;49.900;8.208;2024-02-21T04:36:30;8.10;99.90
18456;DHT22;9357;49.900;8.208;2024-02-21T04:38:03;8.10;99.90
18456;DHT22;9357;49.900;8.208;2024-02-21T04:39:35;8.10;99.90
18456;DHT22;9357;49.900;8.208;2024-02-21T04:41:08;8.10;99.90
18456;DHT22;9357;49.900;8.208;2024-02-21T04:42:41;8.10;99.90
18456;DHT22;9357;49.900;8.208;2024-02-21T04:44:14;8.10;99.90
18456;DHT22;9357;49.900;8.208;2024-02-21T04:45:47;8.10;99.90
18456;DHT22;9357;49.900;8.208;2024-02-21T04:47:20;8.10;99.90
18456;DHT22;9357;49.900;8.208;2024-02-21T04:48:55;8.10;99.90
18456;DHT22;9357;49.900;8.208;2024-02-21T04:50:27;8.10;99.90
18456;DHT22;9357;49.900;8.208;2024-02-21T04:52:00;8.10;99.90
18456;DHT22;9357;49.900;8.208;2024-02-21T04:53:32;8.10;99.90
18456;DHT22;9357;49.900;8.208;2024-02-21T04:55:05;8.10;99.90
18456;DHT22;9357;49.900;8.208;2024-02-21T04:56:37;8.10;99.90
18456;DHT22;9357;49.900;8.208;2024-02-21T04:58:11;8.00;99.90
18456;DHT22;9357;49.900;8.208;2024-02-21T04:59:44;8.10;99.90
18456;DHT22;9357;49.900;8.208;2024-02-21T05:01:16;8.00;99.90
18456;DHT22;9357;49.900;8.208;2024-02-21T05:02:48;8.00;99.90
18456;DHT22;9357;49.900;8.208;2024-02-21T05:04:21;8.00;99.90
18456;DHT22;9357;49.900;8.208;2024-02-21T05:05:53;8.00;99.90
18456;DHT22;9357;49.900;8.208;2024-02-21T05:07:26;8.00;99.90
18456;DHT22;9357;49.900;8.208;2024-02-21T05:08:58;8.00;99.90
18456;DHT22;9357;49.900;8.208;2024-02-21T05:10:31;8.00;99.90
18456;DHT22;9357;49.900;8.208;2024-02-21T05:12:03;8.00;99.90
18456;DHT22;9357;49.900;8.208;2024-02-21T05:13:38;8.00;99.90
18456;DHT22;9357;49.900;8.208;2024-02-21T05:15:09;7.90;99.90
18456;DHT22;9357;49.900;8.208;2024-02-21T05:16:42;7.90;99.90
18456;DHT22;9357;49.900;8.208;2024-02-21T05:18:14;7.90;99.90
18456;DHT22;9357;49.900;8.208;2024-02-21T05:19:47;7.90;99.90
18456;DHT22;9357;49.900;8.208;2024-02-21T05:21:20;7.90;99.90
18456;DHT22;9357;49.900;8.208;2024-02-21T05:22:52;7.90;99.90
18456;DHT22;9357;49.900;8.208;2024-02-21T05:24:25;7.90;99.90
18456;DHT22;9357;49.900;8.208;2024-02-21T05:25:56;7.90;99.90
18456;DHT22;9357;49.900;8.208;2024-02-21T05:27:29;7.90;99.90
18456;DHT22;9357;49.900;8.208;2024-02-21T05:29:03;7.90;99.90
18456;DHT22;9357;49.900;8.208;2024-02-21T05:30:36;7.90;99.90
18456;DHT22;9357;49.900;8.208;2024-02-21T05:32:09;7.90;99.90
18456;DHT22;9357;49.900;8.208;2024-02-21T05:33:40;7.90;99.90
18456;DHT22;9357;49.900;8.208;2024-02-21T05:35:13;8.00;99.90
18456;DHT22;9357;49.900;8.208;2024-02-21T05:36:45;8.00;99.90
18456;DHT22;9357;49.900;8.208;2024-02-21T05:38:19;7.90;99.90
18456;DHT22;9357;49.900;8.208;2024-02-21T05:39:51;7.90;99.90
18456;DHT22;9357;49.900;8.208;2024-02-21T05:41:23;8.00;99.90
18456;DHT22;9357;49.900;8.208;2024-02-21T05:42:56;8.00;99.90
18456;DHT22;9357;49.900;8.208;2024-02-21T05:44:30;8.00;99.90
18456;DHT22;9357;49.900;8.208;2024-02-21T05:46:03;8.00;99.90
18456;DHT22;9357;49.900;8.208;2024-02-21T05:47:35;7.90;99.90
18456;DHT22;9357;49.900;8.208;2024-02-21T05:49:08;7.90;99.90
18456;DHT22;9357;49.900;8.208;2024-02-21T05:50:40;7.90;99.90
18456;DHT22;9357;49.900;8.208;2024-02-21T05:52:13;7.90;99.90
18456;DHT22;9357;49.900;8.208;2024-02-21T05:53:45;7.90;99.90
18456;DHT22;9357;49.900;8.208;2024-02-21T05:55:19;7.90;99.90
18456;DHT22;9357;49.900;8.208;2024-02-21T05:56:51;7.90;99.90
18456;DHT22;9357;49.900;8.208;2024-02-21T05:58:24;7.90;99.90
18456;DHT22;9357;49.900;8.208;2024-02-21T05:59:58;7.90;99.90
18456;DHT22;9357;49.900;8.208;2024-02-21T06:01:31;7.90;99.90
18456;DHT22;9357;49.900;8.208;2024-02-21T06:03:03;7.90;99.90
18456;DHT22;9357;49.900;8.208;2024-02-21T06:04:36;7.90;99.90
18456;DHT22;9357;49.900;8.208;2024-02-21T06:06:08;7.90;99.90
18456;DHT22;9357;49.900;8.208;2024-02-21T06:07:41;7.90;99.90
18456;DHT22;9357;49.900;8.208;2024-02-21T06:09:12;7.90;99.90
18456;DHT22;9357;49.900;8.208;2024-02-21T06:10:45;7.80;99.90
18456;DHT22;9357;49.900;8.208;2024-02-21T06:12:17;7.80;99.90
18456;DHT22;9357;49.900;8.208;2024-02-21T06:13:50;7.80;99.90
18456;DHT22;9357;49.900;8.208;2024-02-21T06:15:24;7.80;99.90
18456;DHT22;9357;49.900;8.208;2024-02-21T06:16:56;7.80;99.90
18456;DHT22;9357;49.900;8.208;2024-02-21T06:18:29;7.80;99.90
18456;DHT22;9357;49.900;8.208;2024-02-21T06:20:01;7.70;99.90
18456;DHT22;9357;49.900;8.208;2024-02-21T06:21:34;7.70;99.90
18456;DHT22;9357;49.900;8.208;2024-02-21T06:23:06;7.70;99.90
18456;DHT22;9357;49.900;8.208;2024-02-21T06:24:38;7.80;99.90
18456;DHT22;9357;49.900;8.208;2024-02-21T06:26:10;7.70;99.90
18456;DHT22;9357;49.900;8.208;2024-02-21T06:27:43;7.70;99.90
18456;DHT22;9357;49.900;8.208;2024-02-21T06:29:16;7.70;99.90
18456;DHT22;9357;49.900;8.208;2024-02-21T06:30:49;7.70;99.90
18456;DHT22;9357;49.900;8.208;2024-02-21T06:32:23;7.60;99.90
18456;DHT22;9357;49.900;8.208;2024-02-21T06:34:03;7.60;99.90
18456;DHT22;9357;49.900;8.208;2024-02-21T06:35:36;7.60;99.90
18456;DHT22;9357;49.900;8.208;2024-02-21T06:37:09;7.60;99.90
18456;DHT22;9357;49.900;8.208;2024-02-21T06:38:42;7.60;99.90
18456;DHT22;9357;49.900;8.208;2024-02-21T06:40:14;7.60;99.90
18456;DHT22;9357;49.900;8.208;2024-02-21T06:41:47;7.50;99.90
18456;DHT22;9357;49.900;8.208;2024-02-21T06:43:21;7.50;99.90
18456;DHT22;9357;49.900;8.208;2024-02-21T06:44:54;7.50;99.90
18456;DHT22;9357;49.900;8.208;2024-02-21T06:46:29;7.50;99.90
18456;DHT22;9357;49.900;8.208;2024-02-21T06:48:02;7.50;99.90
18456;DHT22;9357;49.900;8.208;2024-02-21T06:49:35;7.40;99.90
18456;DHT22;9357;49.900;8.208;2024-02-21T06:51:08;7.40;99.90
18456;DHT22;9357;49.900;8.208;2024-02-21T06:52:41;7.40;99.90
18456;DHT22;9357;49.900;8.208;2024-02-21T06:54:14;7.50;99.90
18456;DHT22;9357;49.900;8.208;2024-02-21T06:55:45;7.40;99.90
18456;DHT22;9357;49.900;8.208;2024-02-21T06:57:18;7.40;99.90
18456;DHT22;9357;49.900;8.208;2024-02-21T06:58:51;7.40;99.90
18456;DHT22;9357;49.900;8.208;2024-02-21T07:00:23;7.40;99.90
18456;DHT22;9357;49.900;8.208;2024-02-21T07:01:58;7.40;99.90
18456;DHT22;9357;49.900;8.208;2024-02-21T07:03:32;7.40;99.90
18456;DHT22;9357;49.900;8.208;2024-02-21T07:05:04;7.40;99.90
18456;DHT22;9357;49.900;8.208;2024-02-21T07:06:37;7.40;99.90
18456;DHT22;9357;49.900;8.208;2024-02-21T07:08:09;7.40;99.90
18456;DHT22;9357;49.900;8.208;2024-02-21T07:09:42;7.40;99.90
18456;DHT22;9357;49.900;8.208;2024-02-21T07:11:15;7.40;99.90
18456;DHT22;9357;49.900;8.208;2024-02-21T07:12:47;7.40;99.90
18456;DHT22;9357;49.900;8.208;2024-02-21T07:14:20;7.40;99.90
18456;DHT22;9357;49.900;8.208;2024-02-21T07:15:52;7.40;99.90
18456;DHT22;9357;49.900;8.208;2024-02-21T07:17:26;7.40;99.90
18456;DHT22;9357;49.900;8.208;2024-02-21T07:18:59;7.40;99.90
18456;DHT22;9357;49.900;8.208;2024-02-21T07:20:31;7.40;99.90
18456;DHT22;9357;49.900;8.208;2024-02-21T07:22:05;7.40;99.90
18456;DHT22;9357;49.900;8.208;2024-02-21T07:23:40;7.50;99.90
18456;DHT22;9357;49.900;8.208;2024-02-21T07:25:12;7.50;99.90
18456;DHT22;9357;49.900;8.208;2024-02-21T07:26:45;7.50;99.90
18456;DHT22;9357;49.900;8.208;2024-02-21T07:28:17;7.50;99.90
18456;DHT22;9357;49.900;8.208;2024-02-21T07:29:50;7.60;99.90
18456;DHT22;9357;49.900;8.208;2024-02-21T07:31:22;7.60;99.90
18456;DHT22;9357;49.900;8.208;2024-02-21T07:32:56;7.60;99.90
18456;DHT22;9357;49.900;8.208;2024-02-21T07:34:28;7.70;99.90
18456;DHT22;9357;49.900;8.208;2024-02-21T07:36:01;7.70;99.90
18456;DHT22;9357;49.900;8.208;2024-02-21T07:37:33;7.70;99.90
18456;DHT22;9357;49.900;8.208;2024-02-21T07:39:05;7.80;99.90
18456;DHT22;9357;49.900;8.208;2024-02-21T07:40:37;7.80;99.90
18456;DHT22;9357;49.900;8.208;2024-02-21T07:42:10;7.90;99.90
18456;DHT22;9357;49.900;8.208;2024-02-21T07:43:42;7.90;99.90
18456;DHT22;9357;49.900;8.208;2024-02-21T07:45:15;7.90;99.90
18456;DHT22;9357;49.900;8.208;2024-02-21T07:46:46;8.00;99.90
18456;DHT22;9357;49.900;8.208;2024-02-21T07:48:21;8.00;99.90
18456;DHT22;9357;49.900;8.208;2024-02-21T07:49:56;8.10;99.90
18456;DHT22;9357;49.900;8.208;2024-02-21T07:51:28;8.10;99.90
18456;DHT22;9357;49.900;8.208;2024-02-21T07:53:00;8.10;99.90
18456;DHT22;9357;49.900;8.208;2024-02-21T07:54:34;8.20;99.90
18456;DHT22;9357;49.900;8.208;2024-02-21T07:56:06;8.20;99.90
18456;DHT22;9357;49.900;8.208;2024-02-21T07:57:39;8.20;99.90
18456;DHT22;9357;49.900;8.208;2024-02-21T07:59:10;8.30;99.90
18456;DHT22;9357;49.900;8.208;2024-02-21T08:00:44;8.30;99.90
18456;DHT22;9357;49.900;8.208;2024-02-21T08:02:16;8.40;99.90
18456;DHT22;9357;49.900;8.208;2024-02-21T08:03:50;8.40;99.90
18456;DHT22;9357;49.900;8.208;2024-02-21T08:05:23;8.40;99.90
18456;DHT22;9357;49.900;8.208;2024-02-21T08:06:56;8.50;99.90
18456;DHT22;9357;49.900;8.208;2024-02-21T08:08:30;8.50;99.90
18456;DHT22;9357;49.900;8.208;2024-02-21T08:10:04;8.50;99.90
18456;DHT22;9357;49.900;8.208;2024-02-21T08:11:36;8.60;99.90
18456;DHT22;9357;49.900;8.208;2024-02-21T08:13:09;8.60;99.90
18456;DHT22;9357;49.900;8.208;2024-02-21T08:14:40;8.60;99.90
18456;DHT22;9357;49.900;8.208;2024-02-21T08:16:13;8.60;99.90
18456;DHT22;9357;49.900;8.208;2024-02-21T08:17:45;8.60;99.90
18456;DHT22;9357;49.900;8.208;2024-02-21T08:19:20;8.70;99.90
18456;DHT22;9357;49.900;8.208;2024-02-21T08:20:51;8.70;99.90
18456;DHT22;9357;49.900;8.208;2024-02-21T08:22:24;8.70;99.90
18456;DHT22;9357;49.900;8.208;2024-02-21T08:23:58;8.70;99.90
18456;DHT22;9357;49.900;8.208;2024-02-21T08:25:31;8.70;99.90
18456;DHT22;9357;49.900;8.208;2024-02-21T08:27:03;8.70;99.90
18456;DHT22;9357;49.900;8.208;2024-02-21T08:28:36;8.80;99.90
18456;DHT22;9357;49.900;8.208;2024-02-21T08:30:08;8.80;99.90
18456;DHT22;9357;49.900;8.208;2024-02-21T08:31:41;8.80;99.90
18456;DHT22;9357;49.900;8.208;2024-02-21T08:34:48;8.90;99.90
18456;DHT22;9357;49.900;8.208;2024-02-21T08:36:22;8.80;99.90
18456;DHT22;9357;49.900;8.208;2024-02-21T08:37:53;8.80;99.90
18456;DHT22;9357;49.900;8.208;2024-02-21T08:39:26;8.90;99.90
18456;DHT22;9357;49.900;8.208;2024-02-21T08:41:00;8.90;99.90
18456;DHT22;9357;49.900;8.208;2024-02-21T08:42:32;9.00;99.90
18456;DHT22;9357;49.900;8.208;2024-02-21T08:44:05;8.90;99.90
18456;DHT22;9357;49.900;8.208;2024-02-21T08:45:38;9.00;99.90
18456;DHT22;9357;49.900;8.208;2024-02-21T08:47:10;9.00;99.90
18456;DHT22;9357;49.900;8.208;2024-02-21T08:48:43;9.00;99.90
18456;DHT22;9357;49.900;8.208;2024-02-21T08:50:18;9.00;99.90
18456;DHT22;9357;49.900;8.208;2024-02-21T08:51:59;9.00;99.90
18456;DHT22;9357;49.900;8.208;2024-02-21T08:53:32;9.00;99.90
18456;DHT22;9357;49.900;8.208;2024-02-21T08:55:05;9.10;99.90
18456;DHT22;9357;49.900;8.208;2024-02-21T08:56:38;9.10;99.90
18456;DHT22;9357;49.900;8.208;2024-02-21T08:58:10;9.10;99.90
18456;DHT22;9357;49.900;8.208;2024-02-21T08:59:43;9.10;99.90
18456;DHT22;9357;49.900;8.208;2024-02-21T09:01:14;9.10;99.90
18456;DHT22;9357;49.900;8.208;2024-02-21T09:02:47;9.20;99.90
18456;DHT22;9357;49.900;8.208;2024-02-21T09:04:20;9.20;99.90
18456;DHT22;9357;49.900;8.208;2024-02-21T09:05:55;9.30;99.90
18456;DHT22;9357;49.900;8.208;2024-02-21T09:07:27;9.30;99.90
18456;DHT22;9357;49.900;8.208;2024-02-21T09:09:00;9.40;99.90
18456;DHT22;9357;49.900;8.208;2024-02-21T09:10:32;9.50;99.90
18456;DHT22;9357;49.900;8.208;2024-02-21T09:12:06;9.50;99.90
18456;DHT22;9357;49.900;8.208;2024-02-21T09:13:38;9.60;99.90
18456;DHT22;9357;49.900;8.208;2024-02-21T09:15:11;9.60;99.90
18456;DHT22;9357;49.900;8.208;2024-02-21T09:16:42;9.60;99.90
18456;DHT22;9357;49.900;8.208;2024-02-21T09:18:15;9.70;99.90
18456;DHT22;9357;49.900;8.208;2024-02-21T09:19:48;9.80;99.90
18456;DHT22;9357;49.900;8.208;2024-02-21T09:21:22;9.90;99.90
18456;DHT22;9357;49.900;8.208;2024-02-21T09:22:55;9.90;99.90
18456;DHT22;9357;49.900;8.208;2024-02-21T09:24:27;10.00;99.90
18456;DHT22;9357;49.900;8.208;2024-02-21T09:26:00;10.10;99.90
18456;DHT22;9357;49.900;8.208;2024-02-21T09:27:35;10.10;99.90
18456;DHT22;9357;49.900;8.208;2024-02-21T09:29:08;10.20;99.90
18456;DHT22;9357;49.900;8.208;2024-02-21T09:30:40;10.30;99.90
18456;DHT22;9357;49.900;8.208;2024-02-21T09:32:12;10.40;99.90
18456;DHT22;9357;49.900;8.208;2024-02-21T09:33:45;10.40;99.90
18456;DHT22;9357;49.900;8.208;2024-02-21T09:35:18;10.40;99.90
18456;DHT22;9357;49.900;8.208;2024-02-21T09:36:52;10.50;99.90
18456;DHT22;9357;49.900;8.208;2024-02-21T09:38:25;10.50;99.90
18456;DHT22;9357;49.900;8.208;2024-02-21T09:39:57;10.60;99.90
18456;DHT22;9357;49.900;8.208;2024-02-21T09:41:29;10.60;99.90
18456;DHT22;9357;49.900;8.208;2024-02-21T09:43:03;10.70;99.90
18456;DHT22;9357;49.900;8.208;2024-02-21T09:44:39;10.70;99.90
18456;DHT22;9357;49.900;8.208;2024-02-21T09:46:16;10.70;99.90
18456;DHT22;9357;49.900;8.208;2024-02-21T09:48:01;10.70;99.90
18456;DHT22;9357;49.900;8.208;2024-02-21T09:49:37;10.70;99.90
18456;DHT22;9357;49.900;8.208;2024-02-21T09:51:12;10.70;99.90
18456;DHT22;9357;49.900;8.208;2024-02-21T09:52:52;10.70;99.90
18456;DHT22;9357;49.900;8.208;2024-02-21T09:54:30;10.60;99.90
18456;DHT22;9357;49.900;8.208;2024-02-21T09:56:08;10.70;99.90
18456;DHT22;9357;49.900;8.208;2024-02-21T09:57:45;10.70;99.90
18456;DHT22;9357;49.900;8.208;2024-02-21T09:59:18;10.70;99.90
18456;DHT22;9357;49.900;8.208;2024-02-21T10:00:50;10.70;99.90
18456;DHT22;9357;49.900;8.208;2024-02-21T10:02:23;10.80;99.90
18456;DHT22;9357;49.900;8.208;2024-02-21T10:03:56;10.90;99.90
18456;DHT22;9357;49.900;8.208;2024-02-21T10:05:29;11.00;99.90
18456;DHT22;9357;49.900;8.208;2024-02-21T10:07:03;11.10;99.90